createdAt,value
2022-11-16T00:02:17.279Z,10.07
2022-11-16T00:04:52.976Z,7.87
2022-11-16T00:07:26.976Z,8.77
2022-11-16T00:09:57.430Z,10.53
2022-11-16T00:12:31.659Z,9.50
2022-11-16T00:15:01.411Z,9.93
2022-11-16T00:17:44.528Z,9.07
2022-11-16T00:20:31.186Z,8.33
2022-11-16T00:23:17.495Z,10.90
2022-11-16T00:25:47.405Z,8.80
2022-11-16T00:28:21.726Z,13.23
2022-11-16T00:30:55.572Z,10.47
2022-11-16T00:33:39.961Z,11.50
2022-11-16T00:36:13.609Z,10.03
2022-11-16T00:38:58.007Z,10.63
2022-11-16T00:41:29.218Z,9.80
2022-11-16T00:44:23.647Z,9.60
2022-11-16T00:47:05.296Z,9.27
2022-11-16T00:49:35.114Z,9.07
2022-11-16T00:52:06.689Z,8.27
2022-11-16T00:54:43.473Z,12.30
2022-11-16T00:57:14.507Z,10.73
2022-11-16T00:59:43.508Z,8.60
2022-11-16T01:02:13.307Z,9.10
2022-11-16T01:04:43.479Z,6.70
2022-11-16T01:07:12.954Z,9.33
2022-11-16T01:09:45.974Z,9.77
2022-11-16T01:12:23.064Z,8.37
2022-11-16T01:14:55.159Z,9.60
2022-11-16T01:17:38.180Z,9.43
2022-11-16T01:20:18.193Z,9.20
2022-11-16T01:25:43.458Z,6.97
2022-11-16T01:33:50.834Z,9.93
2022-11-16T01:36:22.764Z,9.60
2022-11-16T01:38:56.789Z,11.67
2022-11-16T01:41:32.500Z,9.30
2022-11-16T01:47:00.961Z,10.07
2022-11-16T01:49:45.464Z,11.90
2022-11-16T01:52:22.979Z,12.27
2022-11-16T01:55:06.024Z,10.93
2022-11-16T02:00:43.332Z,11.03
2022-11-16T02:03:26.412Z,14.63
2022-11-16T02:13:07.343Z,14.13
2022-11-16T02:15:57.773Z,14.87
2022-11-16T02:18:38.349Z,16.30
2022-11-16T02:28:10.388Z,17.60
2022-11-16T02:30:56.116Z,18.90
2022-11-16T02:33:33.069Z,16.40
2022-11-16T02:36:20.251Z,16.97
2022-11-16T02:41:53.722Z,19.50
2022-11-16T02:44:31.447Z,17.93
2022-11-16T02:47:09.833Z,20.17
2022-11-16T02:49:43.734Z,19.83
2022-11-16T02:52:16.399Z,20.93
2022-11-16T02:54:46.805Z,16.60
2022-11-16T02:57:43.972Z,16.80
2022-11-16T03:00:24.342Z,15.43
2022-11-16T03:03:12.995Z,15.93
2022-11-16T03:05:50.170Z,18.77
2022-11-16T03:08:24.804Z,15.83
2022-11-16T03:11:26.689Z,18.10
2022-11-16T03:14:03.012Z,15.20
2022-11-16T03:16:36.054Z,18.10
2022-11-16T03:19:10.668Z,15.13
2022-11-16T03:21:43.422Z,15.87
2022-11-16T03:24:13.958Z,14.03
2022-11-16T03:26:49.812Z,15.50
2022-11-16T03:29:33.160Z,15.80
2022-11-16T03:32:10.355Z,16.13
2022-11-16T03:34:43.256Z,18.70
2022-11-16T03:37:13.825Z,15.23
2022-11-16T03:39:48.636Z,18.50
2022-11-16T03:42:17.955Z,17.07
2022-11-16T03:44:48.986Z,15.23
2022-11-16T03:47:18.505Z,15.27
2022-11-16T03:50:04.988Z,17.27
2022-11-16T03:52:36.896Z,18.20
2022-11-16T03:55:06.595Z,15.97
2022-11-16T03:57:35.864Z,12.97
2022-11-16T04:00:05.569Z,16.07
2022-11-16T04:02:34.237Z,16.73
2022-11-16T04:05:22.723Z,14.80
2022-11-16T04:08:10.828Z,18.00
2022-11-16T04:11:01.497Z,16.67
2022-11-16T04:16:49.412Z,17.27
2022-11-16T04:19:36.467Z,15.63
2022-11-16T04:22:30.018Z,16.23
2022-11-16T04:25:02.004Z,17.17
2022-11-16T04:27:49.948Z,18.83
2022-11-16T04:30:23.299Z,16.13
2022-11-16T04:33:10.940Z,18.07
2022-11-16T04:35:57.655Z,19.53
2022-11-16T04:38:30.470Z,18.33
2022-11-16T04:41:00.427Z,18.60
2022-11-16T04:43:29.838Z,18.73
2022-11-16T04:46:15.839Z,19.20
2022-11-16T04:48:45.032Z,18.13
2022-11-16T04:51:14.131Z,19.60
2022-11-16T04:53:47.726Z,20.40
2022-11-16T04:56:17.530Z,19.47
2022-11-16T04:58:46.597Z,18.50
2022-11-16T05:01:16.043Z,21.90
2022-11-16T05:03:46.718Z,21.30
2022-11-16T05:06:16.430Z,19.67
2022-11-16T05:09:02.001Z,20.43
2022-11-16T05:11:42.566Z,21.43
2022-11-16T05:14:11.766Z,21.47
2022-11-16T05:22:24.263Z,21.90
2022-11-16T05:24:53.780Z,20.23
2022-11-16T05:27:25.067Z,23.10
2022-11-16T05:29:53.918Z,24.53
2022-11-16T05:32:23.523Z,21.77
2022-11-16T05:34:54.046Z,25.17
2022-11-16T05:37:27.760Z,23.23
2022-11-16T05:39:57.534Z,20.33
2022-11-16T05:42:29.526Z,23.17
2022-11-16T05:44:59.628Z,19.43
2022-11-16T05:47:29.241Z,18.97
2022-11-16T05:49:59.890Z,23.47
2022-11-16T05:55:26.382Z,18.93
2022-11-16T05:57:56.959Z,19.80
2022-11-16T06:00:26.562Z,18.43
2022-11-16T06:02:55.943Z,20.40
2022-11-16T06:05:26.687Z,21.40
2022-11-16T06:07:55.787Z,21.73
2022-11-16T06:10:25.557Z,18.93
2022-11-16T06:13:07.805Z,18.83
2022-11-16T06:15:41.526Z,20.53
2022-11-16T06:21:30.692Z,19.77
2022-11-16T06:24:03.268Z,20.83
2022-11-16T06:26:34.320Z,19.70
2022-11-16T06:29:20.635Z,19.17
2022-11-16T06:37:30.175Z,23.07
2022-11-16T06:40:00.587Z,17.43
2022-11-16T06:42:30.280Z,18.53
2022-11-16T06:45:02.535Z,18.63
2022-11-16T06:47:31.270Z,18.93
2022-11-16T06:50:01.993Z,16.33
2022-11-16T06:52:31.500Z,20.50
2022-11-16T06:55:01.871Z,20.33
2022-11-16T06:57:30.540Z,19.10
2022-11-16T07:00:03.564Z,17.53
2022-11-16T07:02:47.537Z,18.70
2022-11-16T07:05:16.400Z,18.07
2022-11-16T07:07:45.908Z,16.13
2022-11-16T07:24:20.779Z,18.87
2022-11-16T07:26:49.223Z,19.13
2022-11-16T07:29:17.644Z,21.97
2022-11-16T07:31:46.839Z,19.20
2022-11-16T07:35:13.779Z,17.70
2022-11-16T07:38:39.105Z,16.37
2022-11-16T07:42:03.543Z,16.13
2022-11-16T07:50:50.406Z,15.20
2022-11-16T07:53:19.021Z,13.43
2022-11-16T07:55:54.457Z,14.50
2022-11-16T07:58:24.219Z,12.87
2022-11-16T08:00:53.343Z,11.63
2022-11-16T08:03:24.807Z,14.63
2022-11-16T08:06:01.441Z,13.33
2022-11-16T08:08:39.683Z,12.17
2022-11-16T08:11:09.895Z,14.67
2022-11-16T08:13:47.421Z,16.03
2022-11-16T08:16:17.844Z,12.23
2022-11-16T08:18:49.572Z,15.53
2022-11-16T08:21:22.722Z,9.30
2022-11-16T08:23:56.791Z,8.93
2022-11-16T08:26:28.700Z,13.43
2022-11-16T08:28:58.819Z,13.13
2022-11-16T08:31:29.848Z,11.03
2022-11-16T08:34:03.500Z,12.67
2022-11-16T08:36:33.712Z,9.10
2022-11-16T08:39:02.725Z,11.73
2022-11-16T08:41:31.644Z,12.43
2022-11-16T08:44:02.994Z,11.73
2022-11-16T08:46:31.840Z,12.43
2022-11-16T08:49:14.632Z,17.37
2022-11-16T08:54:20.462Z,11.60
2022-11-16T08:56:49.836Z,10.90
2022-11-16T08:59:19.666Z,11.10
2022-11-16T09:04:44.005Z,14.70
2022-11-16T09:13:12.837Z,9.80
2022-11-16T09:15:43.237Z,8.17
2022-11-16T09:18:12.676Z,7.07
2022-11-16T09:26:59.044Z,8.43
2022-11-16T09:32:35.054Z,7.23
2022-11-16T09:35:25.115Z,7.33
2022-11-16T09:37:55.115Z,7.70
2022-11-16T09:40:45.890Z,6.83
2022-11-16T10:21:54.304Z,8.73
2022-11-16T10:25:07.489Z,9.47
2022-11-16T10:30:56.117Z,7.10
2022-11-16T10:43:49.634Z,5.97
2022-11-16T10:55:22.036Z,7.53
2022-11-16T10:58:04.811Z,9.87
2022-11-16T12:23:43.231Z,6.93
2022-11-16T13:47:42.385Z,5.17
2022-11-16T14:19:40.568Z,5.57
2022-11-16T15:15:58.740Z,3.87
2022-11-16T15:18:30.027Z,8.00
2022-11-16T15:21:11.380Z,6.87
2022-11-16T15:24:15.432Z,2.87
2022-11-16T15:26:40.524Z,5.93
2022-11-16T15:29:19.447Z,6.23
2022-11-16T15:31:48.449Z,5.00
2022-11-16T15:34:19.782Z,6.67
2022-11-16T15:53:18.724Z,4.00
2022-11-16T16:02:37.604Z,4.80
2022-11-16T16:17:03.776Z,7.10
2022-11-16T16:19:53.883Z,7.57
2022-11-16T16:31:43.232Z,7.17
2022-11-16T17:03:12.484Z,7.17
2022-11-16T17:16:49.876Z,8.17
2022-11-16T17:22:14.810Z,9.60
2022-11-16T17:24:43.229Z,9.47
2022-11-16T17:27:11.700Z,11.17
2022-11-16T17:29:54.804Z,12.10
2022-11-16T17:35:25.152Z,10.10
2022-11-16T17:37:54.182Z,13.57
2022-11-16T17:40:52.992Z,13.90
2022-11-16T17:43:26.701Z,13.73
2022-11-16T17:46:08.431Z,13.90
2022-11-16T17:48:49.730Z,14.63
2022-11-16T17:51:20.721Z,16.97
2022-11-16T17:54:12.338Z,14.37
2022-11-16T17:57:06.938Z,17.77
2022-11-16T17:59:42.235Z,15.00
2022-11-16T18:19:11.154Z,10.30
2022-11-16T18:21:43.306Z,12.37
2022-11-16T18:24:19.107Z,19.53
2022-11-16T18:32:34.122Z,10.57
2022-11-16T18:42:29.650Z,14.60
2022-11-16T19:08:36.503Z,15.27
2022-11-16T19:11:42.947Z,13.77
2022-11-16T19:19:57.929Z,10.87
2022-11-16T19:22:27.606Z,9.80
2022-11-16T19:25:01.716Z,10.07
2022-11-16T19:27:46.084Z,9.70
2022-11-16T19:30:18.821Z,17.03
2022-11-16T19:33:02.341Z,14.20
2022-11-16T20:06:11.259Z,11.33
2022-11-16T20:08:42.421Z,13.20
2022-11-16T20:11:16.077Z,13.87
2022-11-16T20:13:51.967Z,13.67
2022-11-16T20:19:32.524Z,15.53
2022-11-16T20:25:45.583Z,13.47
2022-11-16T20:28:36.865Z,12.17
2022-11-16T20:31:55.653Z,18.13
2022-11-16T20:48:16.800Z,12.33
2022-11-16T21:17:37.155Z,10.63
2022-11-16T21:54:42.789Z,9.33
2022-11-16T22:08:21.595Z,9.37
2022-11-16T22:19:06.240Z,10.57
2022-11-16T22:21:40.665Z,10.50
2022-11-16T22:24:34.463Z,9.53
2022-11-16T22:30:04.341Z,12.90
2022-11-16T22:32:44.508Z,8.97
2022-11-16T22:35:38.302Z,11.47
2022-11-16T22:38:21.797Z,7.90
2022-11-16T22:41:11.776Z,10.03
2022-11-16T22:49:10.029Z,9.43
2022-11-16T22:51:42.171Z,9.53
2022-11-16T23:20:17.986Z,8.10
2022-11-16T23:23:31.744Z,7.93
